createdAt,value
2022-12-18T00:01:32.340Z,8.60
2022-12-18T00:04:00.316Z,6.78
2022-12-18T00:06:29.837Z,5.50
2022-12-18T00:08:58.937Z,7.03
2022-12-18T00:11:30.625Z,7.57
2022-12-18T00:13:59.484Z,6.53
2022-12-18T00:16:28.474Z,6.05
2022-12-18T00:18:57.723Z,6.65
2022-12-18T00:21:24.461Z,7.63
2022-12-18T00:23:51.971Z,8.00
2022-12-18T00:26:31.516Z,9.45
2022-12-18T00:29:05.862Z,10.98
2022-12-18T00:31:33.283Z,11.30
2022-12-18T00:34:05.889Z,7.18
2022-12-18T00:36:35.478Z,9.73
2022-12-18T00:39:05.842Z,9.43
2022-12-18T00:41:52.152Z,8.70
2022-12-18T00:44:20.074Z,9.52
2022-12-18T00:46:48.479Z,6.28
2022-12-18T00:49:19.991Z,6.75
2022-12-18T00:51:47.279Z,9.65
2022-12-18T00:54:14.171Z,8.35
2022-12-18T00:56:48.286Z,9.10
2022-12-18T00:59:19.759Z,6.30
2022-12-18T01:01:47.996Z,10.75
2022-12-18T01:04:20.875Z,9.20
2022-12-18T01:06:47.623Z,7.65
2022-12-18T01:09:14.465Z,10.65
2022-12-18T01:11:41.441Z,10.40
2022-12-18T01:14:08.518Z,8.10
2022-12-18T01:16:35.375Z,8.65
2022-12-18T01:19:02.156Z,12.45
2022-12-18T01:21:29.100Z,8.73
2022-12-18T01:24:03.233Z,10.93
2022-12-18T01:26:30.674Z,10.52
2022-12-18T01:28:58.580Z,7.65
2022-12-18T01:31:32.481Z,8.77
2022-12-18T01:34:02.792Z,7.63
2022-12-18T01:36:36.009Z,8.85
2022-12-18T01:39:12.031Z,10.70
2022-12-18T01:41:57.863Z,10.25
2022-12-18T01:45:10.847Z,12.38
2022-12-18T01:50:20.519Z,9.48
2022-12-18T01:52:54.201Z,8.65
2022-12-18T01:55:28.036Z,12.73
2022-12-18T01:57:59.280Z,10.80
2022-12-18T02:00:27.805Z,10.05
2022-12-18T02:02:55.487Z,8.75
2022-12-18T02:05:52.224Z,10.15
2022-12-18T02:08:33.941Z,7.38
2022-12-18T02:11:57.575Z,9.83
2022-12-18T02:14:39.677Z,11.77
2022-12-18T02:17:18.859Z,9.43
2022-12-18T02:20:06.906Z,10.30
2022-12-18T02:23:16.369Z,10.30
2022-12-18T02:26:09.237Z,11.80
2022-12-18T02:28:52.887Z,10.98
2022-12-18T02:31:27.300Z,10.05
2022-12-18T02:33:57.814Z,11.13
2022-12-18T02:36:26.110Z,10.57
2022-12-18T02:38:54.691Z,7.60
2022-12-18T02:41:23.037Z,10.65
2022-12-18T02:43:56.449Z,9.88
2022-12-18T02:46:38.217Z,13.32
2022-12-18T02:49:15.639Z,12.85
2022-12-18T02:51:57.728Z,12.05
2022-12-18T02:54:37.438Z,7.78
2022-12-18T02:57:51.317Z,7.35
2022-12-18T03:00:30.313Z,9.93
2022-12-18T03:03:52.247Z,10.45
2022-12-18T03:06:28.128Z,11.63
2022-12-18T03:09:08.441Z,12.75
2022-12-18T03:12:01.557Z,9.73
2022-12-18T03:14:32.224Z,11.13
2022-12-18T03:17:04.019Z,10.27
2022-12-18T03:19:34.416Z,11.52
2022-12-18T03:22:04.792Z,13.70
2022-12-18T03:24:34.455Z,13.52
2022-12-18T03:27:12.971Z,10.70
2022-12-18T03:29:44.908Z,9.48
2022-12-18T03:32:28.241Z,8.77
2022-12-18T03:35:02.425Z,11.95
2022-12-18T03:37:29.261Z,9.88
2022-12-18T03:39:56.055Z,13.65
2022-12-18T03:42:30.721Z,12.27
2022-12-18T03:45:06.293Z,10.02
2022-12-18T03:48:17.561Z,12.55
2022-12-18T03:51:01.999Z,8.20
2022-12-18T03:53:53.008Z,11.10
2022-12-18T03:56:22.259Z,9.57
2022-12-18T03:58:50.086Z,12.15
2022-12-18T04:01:19.100Z,13.18
2022-12-18T04:03:48.163Z,10.82
2022-12-18T04:06:16.187Z,7.70
2022-12-18T04:08:43.716Z,9.48
2022-12-18T04:11:10.529Z,10.65
2022-12-18T04:13:40.045Z,10.38
2022-12-18T04:16:07.889Z,9.20
2022-12-18T04:18:36.231Z,10.23
2022-12-18T04:21:03.960Z,11.80
2022-12-18T04:23:30.727Z,11.85
2022-12-18T04:25:57.508Z,9.45
2022-12-18T04:28:24.212Z,10.20
2022-12-18T04:30:51.148Z,11.57
2022-12-18T04:33:17.948Z,7.85
2022-12-18T04:35:44.960Z,9.70
2022-12-18T04:38:11.901Z,8.65
2022-12-18T04:40:39.387Z,9.02
2022-12-18T04:43:07.935Z,8.82
2022-12-18T04:45:35.189Z,8.35
2022-12-18T04:48:03.512Z,10.65
2022-12-18T04:50:31.585Z,11.38
2022-12-18T04:52:59.849Z,9.27
2022-12-18T04:55:27.119Z,9.13
2022-12-18T04:57:54.115Z,12.38
2022-12-18T05:00:21.551Z,9.23
2022-12-18T05:02:48.440Z,8.15
2022-12-18T05:05:15.920Z,10.52
2022-12-18T05:07:42.712Z,8.25
2022-12-18T05:10:10.218Z,8.82
2022-12-18T05:12:57.405Z,11.10
2022-12-18T05:15:24.151Z,12.88
2022-12-18T05:17:50.935Z,9.18
2022-12-18T05:20:19.210Z,8.77
2022-12-18T05:22:46.105Z,11.93
2022-12-18T05:25:12.874Z,10.15
2022-12-18T05:27:39.612Z,9.27
2022-12-18T05:30:07.187Z,11.30
2022-12-18T05:32:33.912Z,5.88
2022-12-18T05:35:00.666Z,7.97
2022-12-18T05:37:27.438Z,9.73
2022-12-18T05:39:54.164Z,9.75
2022-12-18T05:42:20.922Z,9.45
2022-12-18T05:44:47.626Z,7.13
2022-12-18T05:47:14.442Z,7.13
2022-12-18T05:52:10.032Z,9.30
2022-12-18T05:54:36.758Z,6.90
2022-12-18T05:57:03.592Z,6.80
2022-12-18T05:59:30.322Z,7.10
2022-12-18T06:01:57.163Z,7.95
2022-12-18T06:04:24.044Z,6.95
2022-12-18T06:06:50.803Z,11.43
2022-12-18T06:09:17.521Z,10.02
2022-12-18T06:11:44.397Z,8.90
2022-12-18T06:14:11.202Z,7.30
2022-12-18T06:16:38.020Z,8.38
2022-12-18T06:19:06.884Z,7.32
2022-12-18T06:21:35.533Z,9.88
2022-12-18T06:24:03.085Z,9.13
2022-12-18T06:26:29.828Z,11.02
2022-12-18T06:28:56.945Z,9.00
2022-12-18T06:31:24.222Z,9.55
2022-12-18T06:33:51.333Z,8.20
2022-12-18T06:36:18.570Z,9.05
2022-12-18T06:38:48.297Z,10.65
2022-12-18T06:41:20.887Z,9.07
2022-12-18T06:43:48.077Z,8.73
2022-12-18T06:46:15.026Z,12.90
2022-12-18T06:48:41.876Z,11.32
2022-12-18T06:51:08.814Z,11.38
2022-12-18T06:53:38.375Z,8.20
2022-12-18T06:56:10.552Z,10.00
2022-12-18T07:01:10.175Z,8.05
2022-12-18T07:03:38.925Z,7.20
2022-12-18T07:06:06.353Z,7.43
2022-12-18T07:08:33.693Z,7.57
2022-12-18T07:11:00.648Z,7.47
2022-12-18T07:13:27.820Z,10.85
2022-12-18T07:15:54.628Z,8.95
2022-12-18T07:18:21.440Z,9.60
2022-12-18T07:20:48.171Z,10.82
2022-12-18T07:23:15.774Z,10.48
2022-12-18T07:25:42.546Z,12.63
2022-12-18T07:28:14.154Z,10.25
2022-12-18T07:30:43.850Z,12.77
2022-12-18T07:33:10.574Z,8.98
2022-12-18T07:35:38.475Z,11.82
2022-12-18T07:38:05.241Z,8.77
2022-12-18T07:40:31.953Z,9.60
2022-12-18T07:42:58.764Z,9.20
2022-12-18T07:45:25.576Z,8.25
2022-12-18T07:47:52.369Z,9.25
2022-12-18T07:50:19.201Z,9.23
2022-12-18T07:52:46.026Z,13.63
2022-12-18T07:55:12.752Z,19.30
2022-12-18T07:57:50.435Z,24.80
2022-12-18T08:00:19.021Z,19.90
2022-12-18T08:02:45.839Z,20.25
2022-12-18T08:05:12.841Z,13.30
2022-12-18T08:07:39.935Z,10.13
2022-12-18T08:10:08.046Z,14.15
2022-12-18T08:12:34.781Z,16.30
2022-12-18T08:15:01.958Z,16.17
2022-12-18T08:17:28.730Z,15.50
2022-12-18T08:19:55.461Z,10.80
2022-12-18T08:22:22.249Z,10.55
2022-12-18T08:24:49.029Z,15.40
2022-12-18T08:27:31.222Z,11.30
2022-12-18T08:29:58.849Z,8.82
2022-12-18T08:32:28.440Z,9.45
2022-12-18T08:34:55.262Z,11.30
2022-12-18T08:37:22.040Z,8.90
2022-12-18T08:39:48.796Z,11.60
2022-12-18T08:42:33.984Z,9.20
2022-12-18T08:45:00.759Z,11.40
2022-12-18T08:47:27.505Z,11.02
2022-12-18T08:49:54.365Z,11.95
2022-12-18T08:52:21.137Z,10.95
2022-12-18T08:54:47.911Z,9.85
2022-12-18T08:57:14.678Z,11.93
2022-12-18T08:59:41.417Z,9.38
2022-12-18T09:02:12.556Z,10.32
2022-12-18T09:04:41.004Z,11.60
2022-12-18T09:07:07.813Z,7.00
2022-12-18T09:09:34.553Z,13.60
2022-12-18T09:12:01.267Z,8.23
2022-12-18T09:14:28.000Z,10.75
2022-12-18T09:16:54.789Z,9.27
2022-12-18T09:19:21.553Z,7.97
2022-12-18T09:21:48.705Z,12.57
2022-12-18T09:24:16.432Z,9.43
2022-12-18T09:26:46.822Z,12.07
2022-12-18T09:29:15.611Z,8.70
2022-12-18T09:31:43.274Z,9.38
2022-12-18T09:34:10.033Z,9.10
2022-12-18T09:36:36.897Z,8.80
2022-12-18T09:39:08.288Z,11.10
2022-12-18T09:41:54.776Z,9.52
2022-12-18T09:44:51.994Z,8.77
2022-12-18T09:47:29.363Z,8.27
2022-12-18T09:50:04.005Z,8.55
2022-12-18T09:52:49.772Z,13.57
2022-12-18T09:55:40.615Z,17.15
2022-12-18T09:58:31.504Z,16.95
2022-12-18T10:00:58.473Z,9.48
2022-12-18T10:03:25.484Z,11.77
2022-12-18T10:06:10.090Z,11.77
2022-12-18T10:09:14.264Z,12.85
2022-12-18T10:12:24.902Z,10.25
2022-12-18T10:15:13.653Z,8.52
2022-12-18T10:17:51.284Z,9.93
2022-12-18T10:20:47.986Z,10.38
2022-12-18T10:23:39.179Z,10.35
2022-12-18T10:26:14.256Z,10.00
2022-12-18T10:28:43.120Z,13.25
2022-12-18T10:31:24.740Z,10.90
2022-12-18T10:33:52.531Z,11.82
2022-12-18T10:36:19.693Z,12.50
2022-12-18T10:38:46.586Z,13.32
2022-12-18T10:41:24.247Z,18.00
2022-12-18T10:44:19.027Z,19.67
2022-12-18T10:46:57.185Z,15.98
2022-12-18T10:49:28.746Z,12.07
2022-12-18T10:52:24.148Z,12.25
2022-12-18T10:54:59.503Z,13.10
2022-12-18T10:57:46.422Z,10.57
2022-12-18T11:00:30.255Z,10.25
2022-12-18T11:02:58.875Z,12.18
2022-12-18T11:05:35.115Z,7.75
2022-12-18T11:08:02.271Z,11.02
2022-12-18T11:10:41.119Z,13.57
2022-12-18T11:13:31.294Z,8.10
2022-12-18T11:15:59.009Z,12.70
2022-12-18T11:18:33.444Z,14.30
2022-12-18T11:21:10.582Z,12.93
2022-12-18T11:23:48.347Z,9.13
2022-12-18T11:26:15.483Z,11.02
2022-12-18T11:28:48.747Z,11.07
2022-12-18T11:31:20.252Z,14.98
2022-12-18T11:34:31.200Z,11.15
2022-12-18T11:37:00.887Z,10.77
2022-12-18T11:39:38.253Z,9.43
2022-12-18T11:42:22.967Z,12.13
2022-12-18T11:44:57.353Z,7.55
2022-12-18T11:47:41.836Z,12.05
2022-12-18T11:50:23.330Z,14.10
2022-12-18T11:52:55.921Z,10.93
2022-12-18T11:55:51.038Z,10.35
2022-12-18T11:58:49.203Z,10.65
2022-12-18T12:01:24.651Z,8.90
2022-12-18T12:04:04.139Z,11.25
2022-12-18T12:07:04.480Z,9.48
2022-12-18T12:10:19.664Z,9.48
2022-12-18T12:13:19.946Z,11.50
2022-12-18T12:16:17.431Z,9.15
2022-12-18T12:19:27.095Z,10.00
2022-12-18T12:22:15.210Z,12.18
2022-12-18T12:24:53.189Z,9.57
2022-12-18T12:27:41.029Z,12.93
2022-12-18T12:30:10.276Z,12.23
2022-12-18T12:32:58.781Z,13.15
2022-12-18T12:35:49.854Z,9.90
2022-12-18T12:38:35.366Z,12.52
2022-12-18T12:41:30.683Z,12.45
2022-12-18T12:44:02.636Z,10.85
2022-12-18T12:46:35.294Z,11.82
2022-12-18T12:49:11.248Z,11.55
2022-12-18T12:51:42.608Z,11.27
2022-12-18T12:54:25.990Z,9.73
2022-12-18T12:57:17.633Z,12.93
2022-12-18T12:59:53.980Z,12.65
2022-12-18T13:02:44.998Z,11.20
2022-12-18T13:05:19.074Z,14.27
2022-12-18T13:08:11.732Z,12.27
2022-12-18T13:13:16.550Z,11.15
2022-12-18T13:16:08.571Z,15.30
2022-12-18T13:18:35.757Z,12.02
2022-12-18T13:21:32.307Z,15.55
2022-12-18T13:24:28.180Z,11.60
2022-12-18T13:26:55.281Z,13.50
2022-12-18T13:29:45.809Z,12.00
2022-12-18T13:32:30.511Z,10.77
2022-12-18T13:35:29.511Z,13.82
2022-12-18T13:37:56.675Z,16.48
2022-12-18T13:40:48.335Z,14.35
2022-12-18T13:43:20.823Z,10.82
2022-12-18T13:46:03.157Z,13.75
2022-12-18T13:48:35.401Z,12.47
2022-12-18T13:53:46.009Z,9.40
2022-12-18T13:56:26.476Z,13.32
2022-12-18T13:59:17.858Z,13.32
2022-12-18T14:01:57.371Z,15.63
2022-12-18T14:04:36.286Z,18.13
2022-12-18T14:07:25.017Z,13.63
2022-12-18T14:10:12.098Z,14.20
2022-12-18T14:12:57.972Z,19.52
2022-12-18T14:15:28.051Z,12.95
2022-12-18T14:18:25.484Z,13.60
2022-12-18T14:20:56.879Z,13.98
2022-12-18T14:23:41.595Z,14.55
2022-12-18T14:26:31.089Z,14.40
2022-12-18T14:29:02.063Z,12.32
2022-12-18T14:31:32.055Z,12.35
2022-12-18T14:33:58.918Z,13.82
2022-12-18T14:36:30.063Z,13.90
2022-12-18T14:38:59.626Z,15.18
2022-12-18T14:41:27.501Z,14.60
2022-12-18T14:43:55.622Z,13.40
2022-12-18T14:46:38.453Z,14.27
2022-12-18T14:49:34.071Z,15.43
2022-12-18T14:52:05.175Z,13.90
2022-12-18T14:54:33.127Z,15.38
2022-12-18T14:57:27.907Z,14.75
2022-12-18T14:59:54.673Z,14.77
2022-12-18T15:02:26.801Z,15.25
2022-12-18T15:05:12.662Z,14.45
2022-12-18T15:07:54.949Z,10.80
2022-12-18T15:10:34.222Z,14.75
2022-12-18T15:13:04.098Z,13.02
2022-12-18T15:15:43.478Z,14.57
2022-12-18T15:18:11.518Z,12.13
2022-12-18T15:20:53.301Z,14.43
2022-12-18T15:23:23.800Z,13.68
2022-12-18T15:26:04.347Z,15.15
2022-12-18T15:28:50.853Z,12.63
2022-12-18T15:31:18.102Z,17.90
2022-12-18T15:34:01.730Z,12.48
2022-12-18T15:36:28.455Z,13.10
2022-12-18T15:39:04.547Z,16.25
2022-12-18T15:41:36.919Z,14.80
2022-12-18T15:44:22.171Z,13.00
2022-12-18T15:46:48.911Z,16.38
2022-12-18T15:49:15.625Z,14.18
2022-12-18T15:51:42.580Z,12.85
2022-12-18T15:54:15.077Z,14.48
2022-12-18T15:57:00.579Z,16.48
2022-12-18T15:59:27.853Z,15.52
2022-12-18T16:01:54.696Z,16.73
2022-12-18T16:04:23.452Z,17.55
2022-12-18T16:07:13.726Z,26.95
2022-12-18T16:09:38.329Z,23.33
2022-12-18T16:12:06.497Z,19.98
2022-12-18T16:14:33.849Z,16.80
2022-12-18T16:17:04.265Z,16.75
2022-12-18T16:19:31.321Z,17.00
2022-12-18T16:21:59.603Z,12.38
2022-12-18T16:24:33.840Z,12.15
2022-12-18T16:27:01.942Z,15.98
2022-12-18T16:29:30.361Z,12.80
2022-12-18T16:32:01.658Z,13.23
2022-12-18T16:34:34.880Z,14.60
2022-12-18T16:37:08.287Z,14.85
2022-12-18T16:39:36.276Z,12.95
2022-12-18T16:42:13.692Z,13.85
2022-12-18T16:44:40.638Z,14.73
2022-12-18T16:47:10.206Z,13.88
2022-12-18T16:49:38.726Z,11.77
2022-12-18T16:52:07.051Z,15.02
2022-12-18T16:54:35.212Z,14.68
2022-12-18T16:57:02.017Z,16.33
2022-12-18T16:59:29.438Z,17.20
2022-12-18T17:01:57.565Z,15.32
2022-12-18T17:04:24.588Z,19.80
2022-12-18T17:06:54.117Z,23.48
2022-12-18T17:09:25.479Z,18.73
2022-12-18T17:11:53.949Z,21.17
2022-12-18T17:14:24.449Z,18.45
2022-12-18T17:17:19.140Z,20.17
2022-12-18T17:19:39.400Z,21.45
2022-12-18T17:22:06.169Z,32.15
2022-12-18T17:24:35.215Z,25.52
2022-12-18T17:27:03.638Z,20.25
2022-12-18T17:29:30.946Z,21.33
2022-12-18T17:31:59.277Z,21.77
2022-12-18T17:34:27.884Z,20.58
2022-12-18T17:36:55.227Z,21.17
2022-12-18T17:39:22.274Z,16.75
2022-12-18T17:41:49.593Z,15.80
2022-12-18T17:44:17.581Z,19.25
2022-12-18T17:46:44.610Z,18.25
2022-12-18T17:49:11.864Z,16.50
2022-12-18T17:51:39.029Z,16.05
2022-12-18T17:54:05.990Z,14.68
2022-12-18T17:56:33.311Z,16.83
2022-12-18T17:59:01.228Z,16.90
2022-12-18T18:01:28.755Z,17.20
2022-12-18T18:03:56.379Z,16.67
2022-12-18T18:06:24.393Z,14.82
2022-12-18T18:08:51.621Z,17.55
2022-12-18T18:11:40.680Z,15.32
2022-12-18T18:14:18.221Z,19.25
2022-12-18T18:16:49.617Z,18.10
2022-12-18T18:19:20.110Z,16.08
2022-12-18T18:21:50.598Z,17.35
2022-12-18T18:24:23.558Z,18.13
2022-12-18T18:26:51.118Z,18.08
2022-12-18T18:29:26.613Z,17.80
2022-12-18T18:31:54.750Z,16.35
2022-12-18T18:34:28.179Z,16.45
2022-12-18T18:36:55.048Z,16.77
2022-12-18T18:39:21.868Z,17.00
2022-12-18T18:41:49.056Z,19.23
2022-12-18T18:44:24.775Z,16.35
2022-12-18T18:46:57.765Z,16.13
2022-12-18T18:49:28.420Z,15.90
2022-12-18T18:51:57.012Z,16.88
2022-12-18T18:54:25.306Z,18.50
2022-12-18T18:59:38.925Z,19.50
2022-12-18T19:02:06.097Z,15.45
2022-12-18T19:04:34.154Z,17.23
2022-12-18T19:07:01.358Z,20.42
2022-12-18T19:09:29.464Z,17.27
2022-12-18T19:12:14.962Z,23.40
2022-12-18T19:14:42.237Z,17.67
2022-12-18T19:17:09.427Z,15.48
2022-12-18T19:19:36.231Z,19.40
2022-12-18T19:22:03.321Z,18.05
2022-12-18T19:24:30.109Z,16.98
2022-12-18T19:26:58.235Z,17.08
2022-12-18T19:29:25.638Z,20.35
2022-12-18T19:31:52.885Z,20.40
2022-12-18T19:34:19.746Z,21.50
2022-12-18T19:36:46.763Z,17.63
2022-12-18T19:39:18.088Z,19.58
2022-12-18T19:41:46.414Z,26.80
2022-12-18T19:44:16.336Z,23.02
2022-12-18T19:46:46.187Z,15.25
2022-12-18T19:49:18.241Z,20.58
2022-12-18T19:51:45.832Z,16.95
2022-12-18T19:54:17.363Z,14.05
2022-12-18T19:56:45.786Z,17.63
2022-12-18T19:59:13.185Z,15.73
2022-12-18T20:01:40.154Z,18.02
2022-12-18T20:04:07.199Z,18.77
2022-12-18T20:06:46.053Z,17.70
2022-12-18T20:09:12.817Z,20.85
2022-12-18T20:11:41.939Z,17.70
2022-12-18T20:14:11.067Z,16.08
2022-12-18T20:16:38.293Z,17.17
2022-12-18T20:19:05.935Z,14.40
2022-12-18T20:21:33.774Z,17.10
2022-12-18T20:24:02.161Z,18.15
2022-12-18T20:26:29.672Z,17.45
2022-12-18T20:28:56.776Z,16.50
2022-12-18T20:31:24.443Z,17.85
2022-12-18T20:33:52.259Z,16.48
2022-12-18T20:36:23.441Z,21.58
2022-12-18T20:38:57.014Z,19.90
2022-12-18T20:41:24.904Z,16.85
2022-12-18T20:43:52.024Z,22.35
2022-12-18T20:46:20.532Z,22.80
2022-12-18T20:48:48.246Z,20.40
2022-12-18T20:51:20.544Z,22.55
2022-12-18T20:53:48.155Z,15.20
2022-12-18T20:56:21.999Z,22.83
2022-12-18T20:58:50.314Z,20.67
2022-12-18T21:01:20.803Z,20.40
2022-12-18T21:03:49.004Z,19.80
2022-12-18T21:06:19.394Z,20.02
2022-12-18T21:08:46.341Z,22.02
2022-12-18T21:11:34.890Z,22.00
2022-12-18T21:14:10.745Z,24.33
2022-12-18T21:16:37.921Z,23.95
2022-12-18T21:19:04.749Z,25.45
2022-12-18T21:21:35.064Z,24.25
2022-12-18T21:24:07.165Z,18.95
2022-12-18T21:26:34.557Z,20.58
2022-12-18T21:29:05.721Z,15.10
2022-12-18T21:31:37.022Z,22.92
2022-12-18T21:34:06.193Z,20.35
2022-12-18T21:36:34.505Z,22.67
2022-12-18T21:39:01.839Z,18.92
2022-12-18T21:41:47.808Z,20.08
2022-12-18T21:44:18.423Z,20.30
2022-12-18T21:46:56.165Z,15.35
2022-12-18T21:49:27.311Z,20.15
2022-12-18T21:51:57.530Z,21.40
2022-12-18T21:54:26.362Z,21.65
2022-12-18T21:57:02.457Z,18.40
2022-12-18T21:59:38.975Z,21.63
2022-12-18T22:02:14.536Z,18.27
2022-12-18T22:04:43.130Z,21.63
2022-12-18T22:07:10.536Z,22.50
2022-12-18T22:09:38.269Z,20.02
2022-12-18T22:12:05.396Z,18.83
2022-12-18T22:14:32.325Z,19.00
2022-12-18T22:16:59.110Z,18.48
2022-12-18T22:19:26.676Z,20.58
2022-12-18T22:21:54.721Z,17.95
2022-12-18T22:24:26.680Z,19.75
2022-12-18T22:27:02.033Z,22.70
2022-12-18T22:30:04.960Z,20.40
2022-12-18T22:32:33.752Z,24.80
2022-12-18T22:35:06.198Z,18.45
2022-12-18T22:37:35.021Z,24.48
2022-12-18T22:40:03.346Z,25.52
2022-12-18T22:42:38.957Z,19.15
2022-12-18T22:45:06.296Z,22.02
2022-12-18T22:47:33.029Z,21.83
2022-12-18T22:49:59.748Z,21.60
2022-12-18T22:52:27.519Z,20.75
2022-12-18T22:54:54.557Z,19.25
2022-12-18T22:57:23.228Z,24.15
2022-12-18T22:59:51.587Z,21.27
2022-12-18T23:02:19.310Z,19.95
2022-12-18T23:04:47.852Z,20.33
2022-12-18T23:07:15.465Z,22.50
2022-12-18T23:09:42.286Z,21.20
2022-12-18T23:12:15.878Z,17.70
2022-12-18T23:14:43.199Z,16.70
2022-12-18T23:17:09.912Z,20.23
2022-12-18T23:19:37.477Z,20.98
2022-12-18T23:22:10.058Z,19.55
2022-12-18T23:24:38.427Z,20.90
2022-12-18T23:27:05.747Z,18.75
2022-12-18T23:29:38.457Z,19.35
2022-12-18T23:32:05.233Z,17.58
2022-12-18T23:34:32.168Z,20.25
2022-12-18T23:36:58.901Z,18.52
2022-12-18T23:39:30.046Z,18.48
2022-12-18T23:41:59.506Z,19.25
2022-12-18T23:44:26.548Z,20.90
2022-12-18T23:46:53.383Z,17.00
2022-12-18T23:49:20.408Z,19.30
2022-12-18T23:51:47.191Z,20.73
2022-12-18T23:54:14.081Z,16.70
2022-12-18T23:56:40.951Z,17.35
2022-12-18T23:59:07.683Z,18.58
